createdAt,value
2022-08-11T00:00:55.508Z,3.07
2022-08-11T00:03:42.355Z,3.58
2022-08-11T00:06:02.010Z,3.35
2022-08-11T00:08:35.176Z,3.22
2022-08-11T00:11:09.249Z,3.50
2022-08-11T00:13:46.149Z,3.58
2022-08-11T00:16:19.650Z,3.35
2022-08-11T00:18:53.389Z,3.33
2022-08-11T00:22:02.973Z,3.25
2022-08-11T00:24:04.530Z,3.45
2022-08-11T00:26:36.724Z,3.30
2022-08-11T00:29:12.542Z,3.10
2022-08-11T00:31:49.237Z,3.72
2022-08-11T00:34:25.902Z,3.12
2022-08-11T00:37:22.135Z,3.17
2022-08-11T00:42:44.376Z,3.37
2022-08-11T00:45:37.839Z,3.33
2022-08-11T00:48:28.440Z,3.52
2022-08-11T00:51:18.927Z,3.52
2022-08-11T00:54:21.606Z,3.47
2022-08-11T00:57:01.338Z,3.70
2022-08-11T00:59:51.338Z,3.27
2022-08-11T01:02:42.026Z,3.37
2022-08-11T01:05:44.786Z,3.67
2022-08-11T01:08:21.570Z,3.55
2022-08-11T01:11:28.637Z,3.40
2022-08-11T01:14:34.227Z,3.45
2022-08-11T01:17:09.552Z,4.10
2022-08-11T01:20:47.639Z,3.60
2022-08-11T01:22:53.975Z,3.55
2022-08-11T01:25:57.613Z,3.77
2022-08-11T01:28:54.584Z,3.98
2022-08-11T01:31:51.205Z,4.50
2022-08-11T01:34:58.165Z,4.15
2022-08-11T01:37:48.651Z,4.12
2022-08-11T01:40:28.107Z,4.40
2022-08-11T01:43:41.515Z,4.20
2022-08-11T01:46:17.158Z,4.85
2022-08-11T01:50:06.781Z,4.42
2022-08-11T01:52:05.071Z,4.30
2022-08-11T01:54:38.809Z,3.85
2022-08-11T01:57:31.457Z,4.67
2022-08-11T02:00:17.298Z,4.28
2022-08-11T02:05:50.857Z,3.98
2022-08-11T02:08:33.166Z,4.15
2022-08-11T02:11:26.417Z,3.80
2022-08-11T02:14:14.060Z,3.95
2022-08-11T02:17:21.506Z,4.20
2022-08-11T02:20:35.837Z,4.25
2022-08-11T02:24:05.579Z,3.77
2022-08-11T02:26:03.110Z,4.60
2022-08-11T02:28:54.019Z,3.80
2022-08-11T02:32:17.162Z,4.42
2022-08-11T02:35:08.528Z,3.90
2022-08-11T02:37:43.801Z,3.98
2022-08-11T02:40:41.337Z,3.87
2022-08-11T02:43:15.568Z,3.98
2022-08-11T02:45:55.214Z,4.00
2022-08-11T02:48:52.863Z,4.03
2022-08-11T02:51:38.453Z,4.17
2022-08-11T02:54:15.013Z,4.10
2022-08-11T02:56:56.331Z,3.50
2022-08-11T02:59:51.347Z,3.77
2022-08-11T03:02:54.072Z,3.58
2022-08-11T03:05:44.678Z,3.83
2022-08-11T03:08:55.153Z,3.90
2022-08-11T03:11:52.776Z,3.60
2022-08-11T03:14:50.459Z,3.42
2022-08-11T03:17:30.391Z,4.10
2022-08-11T03:20:37.820Z,3.80
2022-08-11T03:23:19.822Z,3.58
2022-08-11T03:26:00.405Z,3.55
2022-08-11T03:28:50.890Z,3.50
2022-08-11T03:31:39.955Z,3.80
2022-08-11T03:34:19.621Z,3.35
2022-08-11T03:37:45.178Z,3.60
2022-08-11T03:40:23.379Z,3.50
2022-08-11T03:43:03.890Z,3.35
2022-08-11T03:45:55.975Z,3.62
2022-08-11T03:48:58.436Z,3.40
2022-08-11T03:51:44.786Z,3.42
2022-08-11T03:54:35.437Z,3.40
2022-08-11T03:57:28.687Z,3.42
2022-08-11T04:00:19.576Z,3.60
2022-08-11T04:03:09.843Z,3.72
2022-08-11T04:06:07.933Z,3.62
2022-08-11T04:08:50.957Z,3.42
2022-08-11T04:11:42.566Z,3.65
2022-08-11T04:15:07.626Z,3.80
2022-08-11T04:18:11.106Z,3.58
2022-08-11T04:21:04.558Z,3.40
2022-08-11T04:24:36.492Z,3.15
2022-08-11T04:29:14.248Z,3.33
2022-08-11T04:32:07.777Z,3.33
2022-08-11T04:34:57.989Z,3.60
2022-08-11T04:37:51.242Z,3.70
2022-08-11T04:40:35.407Z,3.30
2022-08-11T04:43:33.253Z,3.58
2022-08-11T04:46:23.841Z,3.45
2022-08-11T04:49:35.511Z,3.08
2022-08-11T04:52:44.206Z,3.27
2022-08-11T04:55:51.481Z,4.03
2022-08-11T04:58:50.444Z,4.05
2022-08-11T05:01:43.976Z,4.17
2022-08-11T05:04:52.497Z,4.80
2022-08-11T05:07:32.152Z,5.10
2022-08-11T05:10:12.204Z,5.03
2022-08-11T05:12:52.263Z,5.55
2022-08-11T05:15:47.153Z,5.10
2022-08-11T05:18:37.531Z,4.83
2022-08-11T05:21:44.747Z,4.67
2022-08-11T05:24:34.971Z,4.95
2022-08-11T05:27:27.009Z,4.17
2022-08-11T05:30:34.320Z,5.60
2022-08-11T05:33:23.850Z,4.53
2022-08-11T05:36:12.999Z,4.90
2022-08-11T05:39:05.860Z,5.12
2022-08-11T05:41:55.412Z,5.30
2022-08-11T05:44:46.409Z,4.87
2022-08-11T05:47:44.687Z,4.42
2022-08-11T05:50:37.241Z,4.67
2022-08-11T05:53:37.327Z,4.60
2022-08-11T05:56:25.079Z,4.58
2022-08-11T05:58:58.259Z,4.53
2022-08-11T06:01:32.141Z,4.40
2022-08-11T06:04:17.899Z,5.00
2022-08-11T06:06:55.376Z,4.72
2022-08-11T06:09:29.632Z,4.55
2022-08-11T06:12:10.410Z,4.65
2022-08-11T06:14:46.649Z,4.75
2022-08-11T06:17:26.701Z,3.77
2022-08-11T06:20:08.560Z,4.03
2022-08-11T06:22:41.255Z,3.55
2022-08-11T06:25:13.714Z,3.90
2022-08-11T06:27:46.994Z,3.33
2022-08-11T06:30:41.168Z,3.47
2022-08-11T06:33:15.289Z,3.52
2022-08-11T06:36:11.722Z,3.20
2022-08-11T06:39:02.849Z,3.10
2022-08-11T06:41:54.279Z,3.05
2022-08-11T06:44:37.807Z,2.87
2022-08-11T06:47:14.673Z,3.10
2022-08-11T06:53:06.763Z,3.10
2022-08-11T06:56:00.566Z,2.72
2022-08-11T06:58:52.211Z,2.30
2022-08-11T07:01:52.065Z,2.45
2022-08-11T07:04:32.297Z,3.02
2022-08-11T07:07:41.040Z,2.42
2022-08-11T07:10:42.154Z,2.15
2022-08-11T07:13:44.512Z,2.33
2022-08-11T07:16:12.655Z,2.05
2022-08-11T07:19:01.761Z,2.27
2022-08-11T07:22:03.012Z,2.17
2022-08-11T07:24:59.100Z,2.22
2022-08-11T07:27:41.975Z,2.08
2022-08-11T07:30:14.216Z,2.40
2022-08-11T07:32:54.129Z,2.12
2022-08-11T07:35:40.297Z,2.30
2022-08-11T07:38:22.849Z,2.08
2022-08-11T07:40:53.454Z,2.12
2022-08-11T07:43:24.686Z,2.10
2022-08-11T07:46:15.604Z,2.20
2022-08-11T07:49:04.847Z,2.00
2022-08-11T07:51:55.891Z,1.70
2022-08-11T07:54:28.191Z,1.65
2022-08-11T07:57:09.036Z,1.75
2022-08-11T08:00:03.958Z,2.27
2022-08-11T08:02:43.577Z,1.70
2022-08-11T08:05:34.154Z,1.70
2022-08-11T08:08:24.678Z,1.85
2022-08-11T08:11:16.194Z,1.62
2022-08-11T08:14:07.790Z,1.67
2022-08-11T08:16:58.708Z,1.60
2022-08-11T08:19:30.703Z,1.90
2022-08-11T08:22:37.295Z,1.77
2022-08-11T08:24:36.795Z,1.95
2022-08-11T08:27:08.517Z,2.00
2022-08-11T08:29:58.757Z,1.80
2022-08-11T08:32:30.679Z,1.80
2022-08-11T08:35:02.431Z,1.70
2022-08-11T08:37:47.222Z,1.87
2022-08-11T08:40:09.935Z,1.70
2022-08-11T08:42:45.523Z,1.87
2022-08-11T08:45:18.882Z,1.65
2022-08-11T08:48:07.988Z,1.80
2022-08-11T08:51:00.167Z,1.72
2022-08-11T08:53:34.631Z,2.12
2022-08-11T08:56:07.296Z,1.70
2022-08-11T08:58:40.398Z,1.80
2022-08-11T09:01:13.342Z,1.92
2022-08-11T09:04:06.752Z,1.80
2022-08-11T09:06:18.291Z,1.80
2022-08-11T09:08:51.946Z,1.67
2022-08-11T09:11:43.419Z,1.82
2022-08-11T09:14:15.401Z,1.40
2022-08-11T09:16:48.601Z,1.30
2022-08-11T09:19:21.546Z,1.60
2022-08-11T09:22:12.190Z,1.40
2022-08-11T09:25:01.978Z,1.17
2022-08-11T09:27:34.631Z,1.50
2022-08-11T09:30:07.930Z,1.50
2022-08-11T09:32:42.351Z,1.60
2022-08-11T09:35:15.198Z,1.80
2022-08-11T09:38:04.594Z,1.67
2022-08-11T09:40:36.373Z,1.37
2022-08-11T09:43:27.630Z,1.70
2022-08-11T09:46:00.536Z,1.60
2022-08-11T09:48:40.093Z,1.52
2022-08-11T09:51:12.691Z,1.32
2022-08-11T09:53:47.122Z,1.30
2022-08-11T09:56:40.682Z,1.40
2022-08-11T09:59:12.552Z,1.52
2022-08-11T10:01:49.583Z,1.50
2022-08-11T10:04:26.566Z,1.40
2022-08-11T10:07:05.738Z,1.10
2022-08-11T10:09:52.346Z,1.40
2022-08-11T10:12:30.216Z,1.20
2022-08-11T10:15:24.573Z,1.25
2022-08-11T10:18:19.576Z,1.30
2022-08-11T10:20:55.438Z,1.50
2022-08-11T10:24:01.472Z,1.32
2022-08-11T10:26:40.111Z,1.42
2022-08-11T10:29:36.723Z,1.32
2022-08-11T10:32:27.808Z,1.27
2022-08-11T10:35:00.102Z,1.40
2022-08-11T10:38:15.614Z,1.52
2022-08-11T10:40:08.565Z,1.20
2022-08-11T10:42:59.257Z,1.20
2022-08-11T10:45:51.908Z,2.92
2022-08-11T10:48:25.330Z,1.70
2022-08-11T10:51:15.481Z,1.30
2022-08-11T10:54:11.518Z,1.25
2022-08-11T10:57:01.826Z,1.30
2022-08-11T10:59:35.635Z,1.30
2022-08-11T11:02:07.332Z,1.60
2022-08-11T11:04:51.590Z,1.65
2022-08-11T11:07:30.026Z,1.22
2022-08-11T11:10:07.569Z,1.40
2022-08-11T11:13:08.391Z,1.60
2022-08-11T11:15:59.803Z,1.45
2022-08-11T11:18:35.300Z,1.52
2022-08-11T11:21:09.281Z,1.45
2022-08-11T11:24:06.616Z,1.60
2022-08-11T11:26:54.350Z,1.57
2022-08-11T11:29:57.314Z,1.55
2022-08-11T11:32:53.636Z,2.10
2022-08-11T11:35:39.653Z,1.80
2022-08-11T11:38:14.131Z,1.80
2022-08-11T11:40:44.393Z,1.32
2022-08-11T11:43:15.466Z,1.50
2022-08-11T11:45:48.062Z,1.62
2022-08-11T11:48:20.519Z,1.40
2022-08-11T11:50:53.741Z,2.30
2022-08-11T11:53:25.205Z,2.25
2022-08-11T11:55:57.406Z,2.20
2022-08-11T11:58:48.513Z,1.70
2022-08-11T12:01:23.176Z,3.05
2022-08-11T12:03:55.729Z,2.22
2022-08-11T12:06:41.943Z,1.85
2022-08-11T12:09:16.855Z,2.52
2022-08-11T12:12:05.649Z,1.30
2022-08-11T12:14:38.626Z,1.42
2022-08-11T12:17:09.688Z,1.40
2022-08-11T12:19:40.676Z,1.60
2022-08-11T12:22:33.408Z,1.40
2022-08-11T12:25:24.841Z,1.57
2022-08-11T12:27:57.574Z,1.50
2022-08-11T12:30:28.642Z,1.10
2022-08-11T12:32:59.932Z,1.22
2022-08-11T12:35:31.289Z,1.30
2022-08-11T12:38:10.832Z,1.55
2022-08-11T12:41:14.945Z,1.57
2022-08-11T12:43:56.412Z,1.32
2022-08-11T12:46:25.492Z,1.40
2022-08-11T12:49:17.285Z,1.72
2022-08-11T12:52:14.914Z,1.50
2022-08-11T12:54:54.786Z,1.30
2022-08-11T12:57:55.472Z,1.55
2022-08-11T13:00:46.238Z,1.40
2022-08-11T13:03:37.071Z,1.40
2022-08-11T13:06:09.676Z,1.45
2022-08-11T13:08:42.710Z,1.65
2022-08-11T13:11:55.739Z,1.42
2022-08-11T13:14:15.281Z,1.42
2022-08-11T13:17:04.463Z,1.42
2022-08-11T13:19:36.659Z,1.30
2022-08-11T13:22:08.723Z,1.40
2022-08-11T13:24:41.190Z,1.80
2022-08-11T13:27:14.281Z,1.40
2022-08-11T13:29:47.533Z,1.42
2022-08-11T13:32:20.511Z,1.40
2022-08-11T13:34:52.000Z,1.50
2022-08-11T13:38:18.843Z,1.32
2022-08-11T13:39:59.032Z,1.50
2022-08-11T13:42:30.501Z,1.72
2022-08-11T13:45:02.129Z,1.35
2022-08-11T13:47:33.793Z,1.15
2022-08-11T13:50:08.651Z,1.30
2022-08-11T13:52:42.748Z,1.65
2022-08-11T13:55:50.949Z,1.12
2022-08-11T14:00:27.771Z,1.07
2022-08-11T14:02:58.243Z,1.20
2022-08-11T14:05:35.009Z,1.52
2022-08-11T14:08:08.970Z,1.30
2022-08-11T14:10:42.226Z,1.30
2022-08-11T14:13:42.256Z,1.30
2022-08-11T14:16:09.582Z,1.40
2022-08-11T14:18:43.700Z,1.90
2022-08-11T14:21:37.433Z,2.45
2022-08-11T14:24:10.819Z,1.77
2022-08-11T14:26:44.617Z,2.10
2022-08-11T14:29:22.010Z,1.50
2022-08-11T14:31:58.275Z,1.92
2022-08-11T14:34:31.171Z,1.70
2022-08-11T14:37:15.336Z,2.52
2022-08-11T14:39:52.509Z,1.35
2022-08-11T14:42:44.025Z,1.80
2022-08-11T14:45:54.222Z,1.95
2022-08-11T14:48:11.311Z,2.05
2022-08-11T14:50:42.914Z,1.40
2022-08-11T14:53:16.106Z,1.37
2022-08-11T14:56:07.271Z,1.22
2022-08-11T14:58:40.376Z,1.22
2022-08-11T15:01:30.785Z,1.20
2022-08-11T15:04:34.507Z,1.10
2022-08-11T15:06:35.707Z,1.20
2022-08-11T15:09:09.255Z,1.40
2022-08-11T15:12:00.294Z,1.20
2022-08-11T15:14:55.800Z,1.25
2022-08-11T15:17:24.223Z,2.45
2022-08-11T15:20:18.364Z,1.50
2022-08-11T15:23:07.916Z,1.30
2022-08-11T15:25:41.606Z,1.27
2022-08-11T15:28:32.864Z,1.40
2022-08-11T15:31:23.418Z,1.05
2022-08-11T15:34:16.473Z,1.37
2022-08-11T15:37:08.796Z,1.30
2022-08-11T15:39:44.307Z,1.40
2022-08-11T15:42:36.097Z,1.32
2022-08-11T15:45:28.239Z,1.50
2022-08-11T15:48:05.356Z,1.20
2022-08-11T15:50:39.966Z,1.12
2022-08-11T15:53:22.622Z,1.20
2022-08-11T15:55:55.127Z,1.30
2022-08-11T15:58:47.177Z,1.70
2022-08-11T16:01:41.434Z,1.87
2022-08-11T16:04:16.123Z,1.32
2022-08-11T16:06:52.652Z,1.87
2022-08-11T16:09:48.143Z,1.17
2022-08-11T16:12:09.846Z,1.22
2022-08-11T16:15:04.696Z,1.50
2022-08-11T16:17:53.690Z,1.20
2022-08-11T16:20:27.765Z,1.30
2022-08-11T16:23:02.767Z,1.47
2022-08-11T16:28:10.348Z,1.12
2022-08-11T16:30:46.821Z,1.10
2022-08-11T16:33:48.527Z,1.00
2022-08-11T16:36:11.795Z,1.22
2022-08-11T16:38:44.409Z,1.25
2022-08-11T16:41:19.648Z,1.15
2022-08-11T16:44:09.812Z,1.10
2022-08-11T16:46:59.156Z,1.07
2022-08-11T16:49:53.219Z,1.02
2022-08-11T16:52:25.521Z,0.90
2022-08-11T16:54:56.725Z,1.10
2022-08-11T16:57:46.890Z,0.90
2022-08-11T17:00:19.740Z,1.10
2022-08-11T17:03:15.574Z,1.25
2022-08-11T17:06:06.791Z,1.27
2022-08-11T17:09:01.762Z,1.07
2022-08-11T17:11:53.487Z,1.30
2022-08-11T17:14:36.507Z,1.32
2022-08-11T17:17:10.545Z,1.32
2022-08-11T17:20:42.821Z,1.20
2022-08-11T17:22:49.573Z,1.30
2022-08-11T17:25:23.590Z,1.10
2022-08-11T17:27:55.984Z,1.30
2022-08-11T17:30:32.349Z,1.32
2022-08-11T17:33:21.758Z,1.45
2022-08-11T17:35:53.068Z,1.30
2022-08-11T17:38:25.828Z,1.32
2022-08-11T17:41:23.367Z,1.37
2022-08-11T17:44:09.579Z,1.30
2022-08-11T17:47:05.186Z,1.20
2022-08-11T17:49:35.494Z,1.40
2022-08-11T17:52:22.330Z,1.45
2022-08-11T17:55:14.833Z,1.20
2022-08-11T17:58:06.033Z,21.37
2022-08-11T18:00:37.871Z,19.80
2022-08-11T18:03:28.030Z,96.02
2022-08-11T18:06:01.736Z,64.12
2022-08-11T18:08:52.816Z,68.28
2022-08-11T18:12:06.939Z,16.67
2022-08-11T18:14:38.016Z,17.73
2022-08-11T18:17:28.478Z,15.40
2022-08-11T18:20:17.870Z,11.25
2022-08-11T18:23:09.270Z,5.53
2022-08-11T18:26:07.254Z,4.60
2022-08-11T18:29:01.078Z,5.35
2022-08-11T18:31:54.416Z,3.50
2022-08-11T18:34:48.302Z,4.10
2022-08-11T18:37:46.052Z,3.17
2022-08-11T18:40:38.797Z,3.70
2022-08-11T18:43:31.448Z,3.17
2022-08-11T18:46:23.486Z,3.55
2022-08-11T18:50:02.253Z,3.42
2022-08-11T18:52:25.441Z,3.08
2022-08-11T18:55:17.131Z,3.05
2022-08-11T18:58:08.799Z,2.25
2022-08-11T19:01:00.455Z,2.50
2022-08-11T19:03:51.484Z,2.10
2022-08-11T19:06:43.730Z,2.62
2022-08-11T19:09:35.414Z,2.40
2022-08-11T19:12:27.368Z,2.05
2022-08-11T19:15:20.310Z,3.98
2022-08-11T19:18:11.826Z,5.47
2022-08-11T19:21:04.138Z,6.97
2022-08-11T19:23:58.740Z,5.08
2022-08-11T19:26:50.355Z,4.45
2022-08-11T19:30:05.029Z,3.70
2022-08-11T19:32:34.249Z,3.98
2022-08-11T19:35:24.783Z,6.50
2022-08-11T19:38:15.786Z,7.58
2022-08-11T19:41:06.276Z,11.45
2022-08-11T19:43:57.886Z,13.45
2022-08-11T19:46:47.605Z,19.62
2022-08-11T19:49:37.844Z,19.60
2022-08-11T19:52:28.229Z,20.12
2022-08-11T19:55:18.320Z,18.20
2022-08-11T19:58:09.130Z,11.68
2022-08-11T20:00:59.217Z,9.05
2022-08-11T20:03:48.572Z,11.88
2022-08-11T20:06:41.436Z,13.90
2022-08-11T20:10:04.589Z,12.82
2022-08-11T20:12:25.165Z,11.25
2022-08-11T20:15:16.567Z,7.53
2022-08-11T20:18:08.085Z,6.67
2022-08-11T20:20:59.932Z,5.45
2022-08-11T20:23:49.548Z,5.12
2022-08-11T20:26:40.381Z,5.25
2022-08-11T20:29:30.889Z,5.53
2022-08-11T20:32:21.475Z,6.60
2022-08-11T20:35:12.571Z,5.60
2022-08-11T20:38:04.359Z,4.83
2022-08-11T20:40:56.115Z,4.58
2022-08-11T20:44:07.632Z,4.22
2022-08-11T20:46:41.675Z,4.67
2022-08-11T20:49:45.140Z,4.22
2022-08-11T20:52:28.160Z,4.72
2022-08-11T20:55:19.302Z,4.42
2022-08-11T20:58:17.690Z,4.50
2022-08-11T21:01:02.630Z,4.80
2022-08-11T21:06:44.521Z,6.10
2022-08-11T21:09:58.611Z,8.20
2022-08-11T21:12:29.709Z,8.13
2022-08-11T21:15:39.199Z,6.95
2022-08-11T21:18:28.457Z,6.15
2022-08-11T21:21:08.331Z,4.78
2022-08-11T21:24:00.946Z,4.70
2022-08-11T21:26:53.180Z,4.40
2022-08-11T21:29:45.108Z,4.65
2022-08-11T21:32:36.606Z,4.40
2022-08-11T21:35:27.424Z,3.85
2022-08-11T21:38:18.420Z,3.67
2022-08-11T21:41:10.575Z,4.12
2022-08-11T21:44:03.552Z,3.65
2022-08-11T21:46:56.136Z,4.42
2022-08-11T21:49:45.905Z,3.52
2022-08-11T21:52:35.671Z,3.77
2022-08-11T21:55:25.961Z,3.12
2022-08-11T21:58:17.374Z,3.92
2022-08-11T22:01:06.399Z,3.67
2022-08-11T22:03:57.442Z,3.47
2022-08-11T22:06:47.418Z,3.62
2022-08-11T22:09:36.268Z,3.65
2022-08-11T22:12:41.084Z,3.20
2022-08-11T22:15:17.861Z,3.70
2022-08-11T22:18:07.140Z,3.60
2022-08-11T22:20:58.054Z,3.10
2022-08-11T22:23:48.315Z,3.40
2022-08-11T22:26:41.359Z,3.10
2022-08-11T22:29:50.203Z,3.05
2022-08-11T22:32:26.129Z,3.25
2022-08-11T22:35:16.215Z,2.92
2022-08-11T22:38:07.407Z,3.22
2022-08-11T22:40:56.879Z,2.95
2022-08-11T22:43:46.556Z,3.05
2022-08-11T22:46:38.259Z,2.90
2022-08-11T22:49:28.359Z,2.80
2022-08-11T22:52:20.079Z,2.83
2022-08-11T22:55:10.564Z,2.67
2022-08-11T22:58:00.700Z,2.22
2022-08-11T23:00:50.825Z,2.80
2022-08-11T23:03:40.398Z,2.35
2022-08-11T23:06:29.765Z,2.45
2022-08-11T23:09:20.869Z,2.40
2022-08-11T23:12:11.698Z,2.70
2022-08-11T23:15:01.761Z,2.90
2022-08-11T23:17:52.861Z,2.77
2022-08-11T23:20:52.321Z,2.83
2022-08-11T23:23:34.859Z,2.50
2022-08-11T23:26:25.682Z,2.72
2022-08-11T23:29:15.454Z,2.42
2022-08-11T23:32:06.767Z,2.50
2022-08-11T23:35:04.615Z,2.67
2022-08-11T23:37:49.464Z,2.67
2022-08-11T23:40:38.613Z,2.58
2022-08-11T23:43:27.880Z,3.08
2022-08-11T23:46:17.480Z,2.77
2022-08-11T23:49:10.833Z,2.87
2022-08-11T23:52:01.715Z,2.83
2022-08-11T23:54:51.886Z,2.35
2022-08-11T23:57:47.634Z,3.00
